Welcome to Bucharest LROP 030000Z 26003KT CAVOK 00/M06 Q1014 NOSIG

 

Down The Danube 9 - 11.04.2020, 16z - 21z

Spring is usually a time of nature revival: flowers bloom, birds start singing again, people throw away their winter clothes, airplanes... well, this year airplanes #StayHome but not in the virtual world.

We are pleased to announce the ROvACC's realops event. This year it will be on the 11th of April, from 16 to 21 ZULU TIME

Come and fly into and out of Bucharest Romania (LROP / OTP) and have fun flying in a high traffic situation. We'll enjoy controlling you and we promise no holdings... as much as practicable, at least :)

You can take a domestic or an international, a short or a long flight, use your favorite plane or try a new one, fly with your virtual airline or maybe choose one of our partner airports LGAV, LLBG, LYBE or UKLL

Be sure to check our Pilot Briefing Guide, our charts and the sceneries available for Bucharest Henri Coanda International Airport as well as other airports in LRBB FIR or our website.

We'll be waiting for your flight on the 11th of April 2020, between 16z and 21z!

days
hours
minutes
Arrivals 21 out of 60
35% arrivals booked
Departures 17 out of 60
29% departures booked
BOOK NOW PILOT BRIEFING

Please note!

This website is intended for flight simulation only. Information presented here should not be used in real life flight situations.